sensor_id;sensor_type;location;lat;lon;timestamp;P1;durP1;ratioP1;P2;durP2;ratioP2
61127;SDS011;47013;42.664;23.242;2022-09-30T00:01:19;0.20;;;0.20;;
61127;SDS011;47013;42.664;23.242;2022-09-30T00:03:45;0.20;;;0.20;;
61127;SDS011;47013;42.664;23.242;2022-09-30T00:06:12;0.20;;;0.20;;
61127;SDS011;47013;42.664;23.242;2022-09-30T00:08:38;0.63;;;0.45;;
61127;SDS011;47013;42.664;23.242;2022-09-30T00:11:05;0.05;;;0.05;;
61127;SDS011;47013;42.664;23.242;2022-09-30T00:13:31;0.32;;;0.32;;
61127;SDS011;47013;42.664;23.242;2022-09-30T00:15:58;0.25;;;0.25;;
61127;SDS011;47013;42.664;23.242;2022-09-30T00:18:23;0.35;;;0.22;;
61127;SDS011;47013;42.664;23.242;2022-09-30T00:20:49;0.20;;;0.10;;
61127;SDS011;47013;42.664;23.242;2022-09-30T00:23:14;0.38;;;0.30;;
61127;SDS011;47013;42.664;23.242;2022-09-30T00:25:40;0.17;;;0.15;;
61127;SDS011;47013;42.664;23.242;2022-09-30T00:28:05;0.85;;;0.73;;
61127;SDS011;47013;42.664;23.242;2022-09-30T00:30:32;0.32;;;0.32;;
61127;SDS011;47013;42.664;23.242;2022-09-30T00:32:58;0.13;;;0.13;;
61127;SDS011;47013;42.664;23.242;2022-09-30T00:35:24;0.13;;;0.13;;
61127;SDS011;47013;42.664;23.242;2022-09-30T00:37:49;0.00;;;0.00;;
61127;SDS011;47013;42.664;23.242;2022-09-30T00:40:15;0.57;;;0.22;;
61127;SDS011;47013;42.664;23.242;2022-09-30T00:42:40;0.10;;;0.10;;
61127;SDS011;47013;42.664;23.242;2022-09-30T00:45:06;0.80;;;0.38;;
61127;SDS011;47013;42.664;23.242;2022-09-30T00:58:10;25.50;;;0.60;;
61127;SDS011;47013;42.664;23.242;2022-09-30T01:00:39;0.20;;;0.20;;
61127;SDS011;47013;42.664;23.242;2022-09-30T01:03:05;0.00;;;0.00;;
61127;SDS011;47013;42.664;23.242;2022-09-30T01:05:31;0.00;;;0.00;;
61127;SDS011;47013;42.664;23.242;2022-09-30T01:07:59;0.35;;;0.35;;
61127;SDS011;47013;42.664;23.242;2022-09-30T01:10:27;0.08;;;0.08;;
61127;SDS011;47013;42.664;23.242;2022-09-30T01:12:53;0.03;;;0.03;;
61127;SDS011;47013;42.664;23.242;2022-09-30T01:15:20;0.10;;;0.10;;
61127;SDS011;47013;42.664;23.242;2022-09-30T01:17:57;0.25;;;0.25;;
61127;SDS011;47013;42.664;23.242;2022-09-30T01:31:55;0.70;;;0.13;;
61127;SDS011;47013;42.664;23.242;2022-09-30T01:47:26;0.00;;;0.00;;
61127;SDS011;47013;42.664;23.242;2022-09-30T01:50:04;0.00;;;0.00;;
61127;SDS011;47013;42.664;23.242;2022-09-30T01:52:43;0.40;;;0.30;;
61127;SDS011;47013;42.664;23.242;2022-09-30T02:00:17;0.00;;;0.00;;
61127;SDS011;47013;42.664;23.242;2022-09-30T02:05:49;0.45;;;0.25;;
61127;SDS011;47013;42.664;23.242;2022-09-30T02:08:19;0.13;;;0.13;;
61127;SDS011;47013;42.664;23.242;2022-09-30T02:10:53;0.10;;;0.10;;
61127;SDS011;47013;42.664;23.242;2022-09-30T02:15:51;0.45;;;0.22;;
61127;SDS011;47013;42.664;23.242;2022-09-30T02:18:34;0.75;;;0.45;;
61127;SDS011;47013;42.664;23.242;2022-09-30T02:21:05;0.40;;;0.38;;
61127;SDS011;47013;42.664;23.242;2022-09-30T02:23:34;0.20;;;0.20;;
61127;SDS011;47013;42.664;23.242;2022-09-30T02:26:10;0.20;;;0.20;;
61127;SDS011;47013;42.664;23.242;2022-09-30T02:28:38;0.00;;;0.00;;
61127;SDS011;47013;42.664;23.242;2022-09-30T02:31:08;0.00;;;0.00;;
61127;SDS011;47013;42.664;23.242;2022-09-30T02:33:58;0.10;;;0.10;;
61127;SDS011;47013;42.664;23.242;2022-09-30T02:39:14;0.13;;;0.13;;
61127;SDS011;47013;42.664;23.242;2022-09-30T02:41:47;0.28;;;0.17;;
61127;SDS011;47013;42.664;23.242;2022-09-30T02:44:21;0.10;;;0.10;;
61127;SDS011;47013;42.664;23.242;2022-09-30T02:49:49;0.75;;;0.50;;
61127;SDS011;47013;42.664;23.242;2022-09-30T02:55:13;0.17;;;0.17;;
61127;SDS011;47013;42.664;23.242;2022-09-30T03:00:47;0.22;;;0.20;;
61127;SDS011;47013;42.664;23.242;2022-09-30T03:03:19;0.65;;;0.43;;
61127;SDS011;47013;42.664;23.242;2022-09-30T03:05:47;0.22;;;0.22;;
61127;SDS011;47013;42.664;23.242;2022-09-30T03:08:14;0.20;;;0.20;;
61127;SDS011;47013;42.664;23.242;2022-09-30T03:10:40;0.15;;;0.15;;
61127;SDS011;47013;42.664;23.242;2022-09-30T03:13:26;0.00;;;0.00;;
61127;SDS011;47013;42.664;23.242;2022-09-30T03:27:45;0.50;;;0.47;;
61127;SDS011;47013;42.664;23.242;2022-09-30T03:30:24;0.65;;;0.38;;
61127;SDS011;47013;42.664;23.242;2022-09-30T03:36:27;0.00;;;0.00;;
61127;SDS011;47013;42.664;23.242;2022-09-30T03:38:58;0.45;;;0.32;;
61127;SDS011;47013;42.664;23.242;2022-09-30T03:44:09;0.52;;;0.40;;
61127;SDS011;47013;42.664;23.242;2022-09-30T03:46:42;0.40;;;0.40;;
61127;SDS011;47013;42.664;23.242;2022-09-30T03:49:17;0.22;;;0.22;;
61127;SDS011;47013;42.664;23.242;2022-09-30T03:51:47;0.22;;;0.22;;
61127;SDS011;47013;42.664;23.242;2022-09-30T03:54:12;0.80;;;0.60;;
61127;SDS011;47013;42.664;23.242;2022-09-30T03:56:38;0.65;;;0.47;;
61127;SDS011;47013;42.664;23.242;2022-09-30T03:59:09;0.65;;;0.38;;
61127;SDS011;47013;42.664;23.242;2022-09-30T04:01:36;0.65;;;0.40;;
61127;SDS011;47013;42.664;23.242;2022-09-30T04:04:01;0.43;;;0.32;;
61127;SDS011;47013;42.664;23.242;2022-09-30T04:06:27;0.43;;;0.43;;
61127;SDS011;47013;42.664;23.242;2022-09-30T04:08:52;0.43;;;0.43;;
61127;SDS011;47013;42.664;23.242;2022-09-30T04:11:20;0.38;;;0.38;;
61127;SDS011;47013;42.664;23.242;2022-09-30T04:13:45;0.70;;;0.63;;
61127;SDS011;47013;42.664;23.242;2022-09-30T04:16:11;0.68;;;0.65;;
61127;SDS011;47013;42.664;23.242;2022-09-30T04:18:37;1.15;;;0.52;;
61127;SDS011;47013;42.664;23.242;2022-09-30T04:21:04;1.48;;;0.65;;
61127;SDS011;47013;42.664;23.242;2022-09-30T04:23:36;0.10;;;0.10;;
61127;SDS011;47013;42.664;23.242;2022-09-30T04:26:04;0.40;;;0.38;;
61127;SDS011;47013;42.664;23.242;2022-09-30T04:28:31;0.32;;;0.32;;
61127;SDS011;47013;42.664;23.242;2022-09-30T04:31:00;0.93;;;0.45;;
61127;SDS011;47013;42.664;23.242;2022-09-30T04:33:26;0.45;;;0.43;;
61127;SDS011;47013;42.664;23.242;2022-09-30T04:35:53;0.43;;;0.43;;
61127;SDS011;47013;42.664;23.242;2022-09-30T04:38:19;1.00;;;0.60;;
61127;SDS011;47013;42.664;23.242;2022-09-30T04:40:44;0.20;;;0.20;;
61127;SDS011;47013;42.664;23.242;2022-09-30T04:43:10;0.55;;;0.38;;
61127;SDS011;47013;42.664;23.242;2022-09-30T04:45:35;0.45;;;0.30;;
61127;SDS011;47013;42.664;23.242;2022-09-30T04:48:00;0.75;;;0.50;;
61127;SDS011;47013;42.664;23.242;2022-09-30T04:50:26;0.73;;;0.43;;
61127;SDS011;47013;42.664;23.242;2022-09-30T04:52:51;0.10;;;0.10;;
61127;SDS011;47013;42.664;23.242;2022-09-30T04:55:19;0.30;;;0.30;;
61127;SDS011;47013;42.664;23.242;2022-09-30T04:57:44;0.22;;;0.22;;
61127;SDS011;47013;42.664;23.242;2022-09-30T05:00:10;0.52;;;0.32;;
61127;SDS011;47013;42.664;23.242;2022-09-30T05:02:36;1.00;;;0.60;;
61127;SDS011;47013;42.664;23.242;2022-09-30T05:05:01;0.30;;;0.30;;
61127;SDS011;47013;42.664;23.242;2022-09-30T05:07:29;1.27;;;0.63;;
61127;SDS011;47013;42.664;23.242;2022-09-30T05:09:55;2.13;;;1.02;;
61127;SDS011;47013;42.664;23.242;2022-09-30T05:12:20;0.40;;;0.40;;
61127;SDS011;47013;42.664;23.242;2022-09-30T05:14:46;0.85;;;0.43;;
61127;SDS011;47013;42.664;23.242;2022-09-30T05:17:11;0.20;;;0.20;;
61127;SDS011;47013;42.664;23.242;2022-09-30T05:19:36;1.75;;;0.93;;
61127;SDS011;47013;42.664;23.242;2022-09-30T05:22:02;0.20;;;0.20;;
61127;SDS011;47013;42.664;23.242;2022-09-30T05:24:27;1.90;;;0.45;;
61127;SDS011;47013;42.664;23.242;2022-09-30T05:26:54;0.10;;;0.10;;
61127;SDS011;47013;42.664;23.242;2022-09-30T05:29:20;0.28;;;0.28;;
61127;SDS011;47013;42.664;23.242;2022-09-30T05:31:46;1.42;;;0.68;;
61127;SDS011;47013;42.664;23.242;2022-09-30T05:34:11;1.08;;;0.60;;
61127;SDS011;47013;42.664;23.242;2022-09-30T05:36:36;9.68;;;1.10;;
61127;SDS011;47013;42.664;23.242;2022-09-30T05:39:02;0.50;;;0.38;;
61127;SDS011;47013;42.664;23.242;2022-09-30T05:41:27;1.08;;;0.52;;
61127;SDS011;47013;42.664;23.242;2022-09-30T05:43:53;11.32;;;0.65;;
61127;SDS011;47013;42.664;23.242;2022-09-30T05:46:18;0.88;;;0.70;;
61127;SDS011;47013;42.664;23.242;2022-09-30T05:48:44;0.82;;;0.45;;
61127;SDS011;47013;42.664;23.242;2022-09-30T05:51:11;0.77;;;0.77;;
61127;SDS011;47013;42.664;23.242;2022-09-30T05:53:37;0.40;;;0.40;;
61127;SDS011;47013;42.664;23.242;2022-09-30T05:56:03;3.30;;;1.08;;
61127;SDS011;47013;42.664;23.242;2022-09-30T05:58:30;0.52;;;0.43;;
61127;SDS011;47013;42.664;23.242;2022-09-30T06:00:55;0.82;;;0.70;;
61127;SDS011;47013;42.664;23.242;2022-09-30T06:03:21;0.90;;;0.43;;
61127;SDS011;47013;42.664;23.242;2022-09-30T06:05:46;0.45;;;0.43;;
61127;SDS011;47013;42.664;23.242;2022-09-30T06:08:13;1.05;;;0.80;;
61127;SDS011;47013;42.664;23.242;2022-09-30T06:10:40;0.70;;;0.43;;
61127;SDS011;47013;42.664;23.242;2022-09-30T06:13:06;0.63;;;0.52;;
61127;SDS011;47013;42.664;23.242;2022-09-30T06:15:32;0.38;;;0.38;;
61127;SDS011;47013;42.664;23.242;2022-09-30T06:18:00;3.72;;;1.75;;
61127;SDS011;47013;42.664;23.242;2022-09-30T06:20:25;0.43;;;0.40;;
61127;SDS011;47013;42.664;23.242;2022-09-30T06:22:51;1.67;;;0.85;;
61127;SDS011;47013;42.664;23.242;2022-09-30T06:25:16;3.10;;;0.70;;
61127;SDS011;47013;42.664;23.242;2022-09-30T06:27:45;0.77;;;0.63;;
61127;SDS011;47013;42.664;23.242;2022-09-30T06:30:11;1.35;;;0.77;;
61127;SDS011;47013;42.664;23.242;2022-09-30T06:32:37;1.00;;;0.57;;
61127;SDS011;47013;42.664;23.242;2022-09-30T06:35:02;1.10;;;0.93;;
61127;SDS011;47013;42.664;23.242;2022-09-30T06:37:28;0.57;;;0.20;;
61127;SDS011;47013;42.664;23.242;2022-09-30T06:39:53;1.08;;;0.77;;
61127;SDS011;47013;42.664;23.242;2022-09-30T06:42:19;0.90;;;0.82;;
61127;SDS011;47013;42.664;23.242;2022-09-30T06:44:46;1.08;;;0.68;;
61127;SDS011;47013;42.664;23.242;2022-09-30T06:47:12;0.65;;;0.55;;
61127;SDS011;47013;42.664;23.242;2022-09-30T06:49:38;1.55;;;0.82;;
61127;SDS011;47013;42.664;23.242;2022-09-30T06:52:04;0.65;;;0.65;;
61127;SDS011;47013;42.664;23.242;2022-09-30T06:54:29;0.98;;;0.75;;
61127;SDS011;47013;42.664;23.242;2022-09-30T06:56:55;0.63;;;0.52;;
61127;SDS011;47013;42.664;23.242;2022-09-30T06:59:22;2.03;;;1.02;;
61127;SDS011;47013;42.664;23.242;2022-09-30T07:01:48;1.95;;;1.30;;
61127;SDS011;47013;42.664;23.242;2022-09-30T07:04:13;1.90;;;1.17;;
61127;SDS011;47013;42.664;23.242;2022-09-30T07:06:39;1.25;;;0.43;;
61127;SDS011;47013;42.664;23.242;2022-09-30T07:09:05;1.75;;;0.93;;
61127;SDS011;47013;42.664;23.242;2022-09-30T07:11:31;0.73;;;0.63;;
61127;SDS011;47013;42.664;23.242;2022-09-30T07:13:57;0.63;;;0.63;;
61127;SDS011;47013;42.664;23.242;2022-09-30T07:16:22;0.45;;;0.45;;
61127;SDS011;47013;42.664;23.242;2022-09-30T07:18:49;1.95;;;0.73;;
61127;SDS011;47013;42.664;23.242;2022-09-30T07:21:15;1.77;;;1.17;;
61127;SDS011;47013;42.664;23.242;2022-09-30T07:23:41;1.25;;;0.90;;
61127;SDS011;47013;42.664;23.242;2022-09-30T07:26:12;3.33;;;1.30;;
61127;SDS011;47013;42.664;23.242;2022-09-30T07:28:42;1.63;;;1.17;;
61127;SDS011;47013;42.664;23.242;2022-09-30T07:31:12;2.35;;;1.40;;
61127;SDS011;47013;42.664;23.242;2022-09-30T07:33:40;3.33;;;1.60;;
61127;SDS011;47013;42.664;23.242;2022-09-30T07:36:06;2.35;;;1.13;;
61127;SDS011;47013;42.664;23.242;2022-09-30T07:38:32;1.70;;;0.88;;
61127;SDS011;47013;42.664;23.242;2022-09-30T07:41:08;2.15;;;1.38;;
61127;SDS011;47013;42.664;23.242;2022-09-30T07:43:36;0.52;;;0.52;;
61127;SDS011;47013;42.664;23.242;2022-09-30T07:46:10;0.82;;;0.82;;
61127;SDS011;47013;42.664;23.242;2022-09-30T07:48:38;2.53;;;1.33;;
61127;SDS011;47013;42.664;23.242;2022-09-30T07:51:31;2.92;;;0.88;;
61127;SDS011;47013;42.664;23.242;2022-09-30T07:53:58;1.65;;;1.15;;
61127;SDS011;47013;42.664;23.242;2022-09-30T07:56:27;13.18;;;2.10;;
61127;SDS011;47013;42.664;23.242;2022-09-30T07:58:57;2.40;;;1.52;;
61127;SDS011;47013;42.664;23.242;2022-09-30T08:01:24;1.83;;;1.35;;
61127;SDS011;47013;42.664;23.242;2022-09-30T08:03:52;1.15;;;1.00;;
61127;SDS011;47013;42.664;23.242;2022-09-30T08:08:45;2.75;;;1.30;;
61127;SDS011;47013;42.664;23.242;2022-09-30T08:11:12;4.50;;;1.48;;
61127;SDS011;47013;42.664;23.242;2022-09-30T08:13:38;2.30;;;1.35;;
61127;SDS011;47013;42.664;23.242;2022-09-30T08:16:04;1.23;;;1.10;;
61127;SDS011;47013;42.664;23.242;2022-09-30T08:18:30;3.65;;;2.00;;
61127;SDS011;47013;42.664;23.242;2022-09-30T08:20:56;2.28;;;1.42;;
61127;SDS011;47013;42.664;23.242;2022-09-30T08:23:27;4.00;;;2.08;;
61127;SDS011;47013;42.664;23.242;2022-09-30T08:25:52;5.90;;;2.97;;
61127;SDS011;47013;42.664;23.242;2022-09-30T08:28:32;1.98;;;1.30;;
61127;SDS011;47013;42.664;23.242;2022-09-30T08:31:02;2.45;;;1.55;;
61127;SDS011;47013;42.664;23.242;2022-09-30T08:33:31;2.58;;;1.50;;
61127;SDS011;47013;42.664;23.242;2022-09-30T08:36:00;1.65;;;1.17;;
61127;SDS011;47013;42.664;23.242;2022-09-30T08:38:26;2.40;;;1.30;;
61127;SDS011;47013;42.664;23.242;2022-09-30T08:40:55;3.03;;;1.58;;
61127;SDS011;47013;42.664;23.242;2022-09-30T08:46:20;2.80;;;1.55;;
61127;SDS011;47013;42.664;23.242;2022-09-30T08:49:44;5.25;;;2.33;;
61127;SDS011;47013;42.664;23.242;2022-09-30T08:52:14;1.90;;;1.25;;
61127;SDS011;47013;42.664;23.242;2022-09-30T08:55:06;4.45;;;2.08;;
61127;SDS011;47013;42.664;23.242;2022-09-30T08:57:38;2.85;;;1.65;;
61127;SDS011;47013;42.664;23.242;2022-09-30T09:00:10;2.55;;;1.23;;
61127;SDS011;47013;42.664;23.242;2022-09-30T09:02:49;3.40;;;1.77;;
61127;SDS011;47013;42.664;23.242;2022-09-30T09:08:20;3.03;;;1.63;;
61127;SDS011;47013;42.664;23.242;2022-09-30T09:11:05;4.45;;;1.85;;
61127;SDS011;47013;42.664;23.242;2022-09-30T09:13:50;2.23;;;1.30;;
61127;SDS011;47013;42.664;23.242;2022-09-30T09:19:08;2.92;;;1.50;;
61127;SDS011;47013;42.664;23.242;2022-09-30T09:24:19;1.52;;;0.70;;
61127;SDS011;47013;42.664;23.242;2022-09-30T09:26:48;2.42;;;1.35;;
61127;SDS011;47013;42.664;23.242;2022-09-30T09:29:37;1.05;;;0.75;;
61127;SDS011;47013;42.664;23.242;2022-09-30T09:32:12;0.38;;;0.38;;
61127;SDS011;47013;42.664;23.242;2022-09-30T09:34:41;0.17;;;0.17;;
61127;SDS011;47013;42.664;23.242;2022-09-30T09:44:47;0.50;;;0.50;;
61127;SDS011;47013;42.664;23.242;2022-09-30T09:47:18;0.73;;;0.40;;
61127;SDS011;47013;42.664;23.242;2022-09-30T09:49:57;0.40;;;0.40;;
61127;SDS011;47013;42.664;23.242;2022-09-30T09:55:11;0.75;;;0.57;;
61127;SDS011;47013;42.664;23.242;2022-09-30T09:57:39;0.32;;;0.30;;
61127;SDS011;47013;42.664;23.242;2022-09-30T10:00:07;0.50;;;0.50;;
61127;SDS011;47013;42.664;23.242;2022-09-30T10:03:07;0.70;;;0.40;;
61127;SDS011;47013;42.664;23.242;2022-09-30T10:05:36;0.52;;;0.35;;
61127;SDS011;47013;42.664;23.242;2022-09-30T10:08:07;1.38;;;0.82;;
61127;SDS011;47013;42.664;23.242;2022-09-30T10:10:53;0.80;;;0.60;;
61127;SDS011;47013;42.664;23.242;2022-09-30T10:15:49;0.35;;;0.35;;
61127;SDS011;47013;42.664;23.242;2022-09-30T10:18:20;0.68;;;0.60;;
61127;SDS011;47013;42.664;23.242;2022-09-30T10:21:18;0.35;;;0.28;;
61127;SDS011;47013;42.664;23.242;2022-09-30T10:23:46;0.40;;;0.40;;
61127;SDS011;47013;42.664;23.242;2022-09-30T10:28:46;0.98;;;0.73;;
61127;SDS011;47013;42.664;23.242;2022-09-30T10:31:23;0.50;;;0.40;;
61127;SDS011;47013;42.664;23.242;2022-09-30T10:36:50;1.27;;;0.63;;
61127;SDS011;47013;42.664;23.242;2022-09-30T10:39:26;0.20;;;0.20;;
61127;SDS011;47013;42.664;23.242;2022-09-30T10:42:03;0.40;;;0.40;;
61127;SDS011;47013;42.664;23.242;2022-09-30T10:44:31;0.45;;;0.45;;
61127;SDS011;47013;42.664;23.242;2022-09-30T10:47:06;0.35;;;0.30;;
61127;SDS011;47013;42.664;23.242;2022-09-30T10:50:07;0.20;;;0.20;;
61127;SDS011;47013;42.664;23.242;2022-09-30T10:52:50;0.25;;;0.25;;
61127;SDS011;47013;42.664;23.242;2022-09-30T10:55:28;0.40;;;0.40;;
61127;SDS011;47013;42.664;23.242;2022-09-30T10:57:57;1.10;;;0.52;;
61127;SDS011;47013;42.664;23.242;2022-09-30T11:00:43;0.55;;;0.50;;
61127;SDS011;47013;42.664;23.242;2022-09-30T11:05:47;0.50;;;0.50;;
61127;SDS011;47013;42.664;23.242;2022-09-30T11:13:45;0.28;;;0.28;;
61127;SDS011;47013;42.664;23.242;2022-09-30T11:16:27;0.20;;;0.20;;
61127;SDS011;47013;42.664;23.242;2022-09-30T11:21:56;0.30;;;0.30;;
61127;SDS011;47013;42.664;23.242;2022-09-30T11:24:48;0.85;;;0.63;;
61127;SDS011;47013;42.664;23.242;2022-09-30T11:32:36;0.22;;;0.22;;
61127;SDS011;47013;42.664;23.242;2022-09-30T11:49:07;0.20;;;0.20;;
61127;SDS011;47013;42.664;23.242;2022-09-30T11:52:28;1.25;;;0.45;;
61127;SDS011;47013;42.664;23.242;2022-09-30T12:00:14;0.10;;;0.10;;
61127;SDS011;47013;42.664;23.242;2022-09-30T12:02:42;1.23;;;0.52;;
61127;SDS011;47013;42.664;23.242;2022-09-30T12:07:39;0.63;;;0.43;;
61127;SDS011;47013;42.664;23.242;2022-09-30T12:12:55;0.30;;;0.30;;
61127;SDS011;47013;42.664;23.242;2022-09-30T12:15:26;0.32;;;0.30;;
61127;SDS011;47013;42.664;23.242;2022-09-30T12:17:57;0.50;;;0.50;;
61127;SDS011;47013;42.664;23.242;2022-09-30T12:25:57;0.30;;;0.30;;
61127;SDS011;47013;42.664;23.242;2022-09-30T12:34:16;0.50;;;0.30;;
61127;SDS011;47013;42.664;23.242;2022-09-30T12:40:11;0.60;;;0.60;;
61127;SDS011;47013;42.664;23.242;2022-09-30T12:48:13;0.30;;;0.30;;
61127;SDS011;47013;42.664;23.242;2022-09-30T12:50:49;0.45;;;0.30;;
61127;SDS011;47013;42.664;23.242;2022-09-30T12:53:25;0.43;;;0.28;;
61127;SDS011;47013;42.664;23.242;2022-09-30T12:55:53;0.75;;;0.40;;
61127;SDS011;47013;42.664;23.242;2022-09-30T12:58:31;0.47;;;0.20;;
61127;SDS011;47013;42.664;23.242;2022-09-30T13:01:24;0.40;;;0.40;;
61127;SDS011;47013;42.664;23.242;2022-09-30T13:03:49;0.40;;;0.40;;
61127;SDS011;47013;42.664;23.242;2022-09-30T13:06:21;3.00;;;0.45;;
61127;SDS011;47013;42.664;23.242;2022-09-30T13:11:38;1.60;;;0.50;;
61127;SDS011;47013;42.664;23.242;2022-09-30T13:14:13;0.75;;;0.40;;
61127;SDS011;47013;42.664;23.242;2022-09-30T13:27:33;0.40;;;0.35;;
61127;SDS011;47013;42.664;23.242;2022-09-30T13:29:59;0.73;;;0.52;;
61127;SDS011;47013;42.664;23.242;2022-09-30T13:32:29;0.00;;;0.00;;
61127;SDS011;47013;42.664;23.242;2022-09-30T13:35:01;0.35;;;0.35;;
61127;SDS011;47013;42.664;23.242;2022-09-30T13:37:46;0.22;;;0.22;;
61127;SDS011;47013;42.664;23.242;2022-09-30T13:41:23;0.75;;;0.38;;
61127;SDS011;47013;42.664;23.242;2022-09-30T13:48:46;0.00;;;0.00;;
61127;SDS011;47013;42.664;23.242;2022-09-30T13:51:17;0.43;;;0.35;;
61127;SDS011;47013;42.664;23.242;2022-09-30T13:53:47;0.63;;;0.47;;
61127;SDS011;47013;42.664;23.242;2022-09-30T13:56:23;3.20;;;0.52;;
61127;SDS011;47013;42.664;23.242;2022-09-30T13:59:55;0.43;;;0.20;;
61127;SDS011;47013;42.664;23.242;2022-09-30T14:13:53;0.35;;;0.28;;
61127;SDS011;47013;42.664;23.242;2022-09-30T14:22:13;0.65;;;0.22;;
61127;SDS011;47013;42.664;23.242;2022-09-30T14:24:39;0.63;;;0.43;;
61127;SDS011;47013;42.664;23.242;2022-09-30T14:27:16;0.30;;;0.20;;
61127;SDS011;47013;42.664;23.242;2022-09-30T14:35:18;1.65;;;0.65;;
61127;SDS011;47013;42.664;23.242;2022-09-30T14:37:56;0.13;;;0.13;;
61127;SDS011;47013;42.664;23.242;2022-09-30T14:40:26;0.63;;;0.43;;
61127;SDS011;47013;42.664;23.242;2022-09-30T14:42:57;0.50;;;0.50;;
61127;SDS011;47013;42.664;23.242;2022-09-30T14:45:27;0.30;;;0.30;;
61127;SDS011;47013;42.664;23.242;2022-09-30T14:47:58;0.32;;;0.32;;
61127;SDS011;47013;42.664;23.242;2022-09-30T14:50:33;1.08;;;0.40;;
61127;SDS011;47013;42.664;23.242;2022-09-30T14:53:16;0.60;;;0.32;;
61127;SDS011;47013;42.664;23.242;2022-09-30T14:56:40;0.00;;;0.00;;
61127;SDS011;47013;42.664;23.242;2022-09-30T14:59:09;0.40;;;0.25;;
61127;SDS011;47013;42.664;23.242;2022-09-30T15:01:43;0.35;;;0.35;;
61127;SDS011;47013;42.664;23.242;2022-09-30T15:04:15;0.68;;;0.40;;
61127;SDS011;47013;42.664;23.242;2022-09-30T15:06:47;0.35;;;0.30;;
61127;SDS011;47013;42.664;23.242;2022-09-30T15:09:16;0.38;;;0.38;;
61127;SDS011;47013;42.664;23.242;2022-09-30T15:12:19;0.20;;;0.13;;
61127;SDS011;47013;42.664;23.242;2022-09-30T15:14:47;0.15;;;0.13;;
61127;SDS011;47013;42.664;23.242;2022-09-30T15:19:54;0.30;;;0.30;;
61127;SDS011;47013;42.664;23.242;2022-09-30T15:22:22;1.00;;;0.55;;
61127;SDS011;47013;42.664;23.242;2022-09-30T15:24:50;0.82;;;0.50;;
61127;SDS011;47013;42.664;23.242;2022-09-30T15:29:52;0.77;;;0.47;;
61127;SDS011;47013;42.664;23.242;2022-09-30T15:32:22;0.30;;;0.30;;
61127;SDS011;47013;42.664;23.242;2022-09-30T15:34:50;0.40;;;0.30;;
61127;SDS011;47013;42.664;23.242;2022-09-30T15:37:20;0.30;;;0.30;;
61127;SDS011;47013;42.664;23.242;2022-09-30T15:39:48;0.65;;;0.35;;
61127;SDS011;47013;42.664;23.242;2022-09-30T15:42:40;1.02;;;0.50;;
61127;SDS011;47013;42.664;23.242;2022-09-30T15:47:54;0.38;;;0.22;;
61127;SDS011;47013;42.664;23.242;2022-09-30T15:53:28;0.75;;;0.35;;
61127;SDS011;47013;42.664;23.242;2022-09-30T15:58:53;0.47;;;0.38;;
61127;SDS011;47013;42.664;23.242;2022-09-30T16:11:43;0.47;;;0.47;;
61127;SDS011;47013;42.664;23.242;2022-09-30T16:14:22;0.80;;;0.40;;
61127;SDS011;47013;42.664;23.242;2022-09-30T16:17:00;0.10;;;0.10;;
61127;SDS011;47013;42.664;23.242;2022-09-30T16:19:29;0.22;;;0.22;;
61127;SDS011;47013;42.664;23.242;2022-09-30T16:21:55;1.08;;;0.68;;
61127;SDS011;47013;42.664;23.242;2022-09-30T16:26:53;0.38;;;0.38;;
61127;SDS011;47013;42.664;23.242;2022-09-30T16:29:24;0.35;;;0.30;;
61127;SDS011;47013;42.664;23.242;2022-09-30T16:31:52;0.15;;;0.15;;
61127;SDS011;47013;42.664;23.242;2022-09-30T16:34:23;0.88;;;0.25;;
61127;SDS011;47013;42.664;23.242;2022-09-30T16:36:50;0.88;;;0.45;;
61127;SDS011;47013;42.664;23.242;2022-09-30T16:39:18;0.23;;;0.23;;
61127;SDS011;47013;42.664;23.242;2022-09-30T16:41:43;0.28;;;0.28;;
61127;SDS011;47013;42.664;23.242;2022-09-30T16:44:09;0.55;;;0.55;;
61127;SDS011;47013;42.664;23.242;2022-09-30T16:46:35;0.28;;;0.28;;
61127;SDS011;47013;42.664;23.242;2022-09-30T16:49:19;0.30;;;0.30;;
61127;SDS011;47013;42.664;23.242;2022-09-30T16:51:44;0.28;;;0.28;;
61127;SDS011;47013;42.664;23.242;2022-09-30T16:54:10;0.57;;;0.40;;
61127;SDS011;47013;42.664;23.242;2022-09-30T16:56:36;0.80;;;0.47;;
61127;SDS011;47013;42.664;23.242;2022-09-30T16:59:02;0.13;;;0.13;;
61127;SDS011;47013;42.664;23.242;2022-09-30T17:01:28;0.20;;;0.10;;
61127;SDS011;47013;42.664;23.242;2022-09-30T17:03:55;0.10;;;0.10;;
61127;SDS011;47013;42.664;23.242;2022-09-30T17:06:28;0.10;;;0.10;;
61127;SDS011;47013;42.664;23.242;2022-09-30T17:08:55;0.75;;;0.50;;
61127;SDS011;47013;42.664;23.242;2022-09-30T17:11:24;0.75;;;0.38;;
61127;SDS011;47013;42.664;23.242;2022-09-30T17:13:53;0.40;;;0.40;;
61127;SDS011;47013;42.664;23.242;2022-09-30T17:16:19;0.40;;;0.40;;
61127;SDS011;47013;42.664;23.242;2022-09-30T17:18:44;0.10;;;0.10;;
61127;SDS011;47013;42.664;23.242;2022-09-30T17:21:10;0.28;;;0.28;;
61127;SDS011;47013;42.664;23.242;2022-09-30T17:23:35;0.00;;;0.00;;
61127;SDS011;47013;42.664;23.242;2022-09-30T17:26:04;0.32;;;0.32;;
61127;SDS011;47013;42.664;23.242;2022-09-30T17:28:30;0.32;;;0.20;;
61127;SDS011;47013;42.664;23.242;2022-09-30T17:30:58;0.52;;;0.30;;
61127;SDS011;47013;42.664;23.242;2022-09-30T17:33:24;0.90;;;0.40;;
61127;SDS011;47013;42.664;23.242;2022-09-30T17:35:57;0.32;;;0.32;;
61127;SDS011;47013;42.664;23.242;2022-09-30T17:38:24;0.30;;;0.20;;
61127;SDS011;47013;42.664;23.242;2022-09-30T17:40:50;0.40;;;0.38;;
61127;SDS011;47013;42.664;23.242;2022-09-30T17:43:33;0.00;;;0.00;;
61127;SDS011;47013;42.664;23.242;2022-09-30T17:45:59;0.00;;;0.00;;
61127;SDS011;47013;42.664;23.242;2022-09-30T17:48:24;1.00;;;0.45;;
61127;SDS011;47013;42.664;23.242;2022-09-30T17:50:50;1.05;;;0.60;;
61127;SDS011;47013;42.664;23.242;2022-09-30T17:53:20;0.25;;;0.15;;
61127;SDS011;47013;42.664;23.242;2022-09-30T17:55:46;0.10;;;0.10;;
61127;SDS011;47013;42.664;23.242;2022-09-30T17:58:13;0.15;;;0.15;;
61127;SDS011;47013;42.664;23.242;2022-09-30T18:00:40;0.45;;;0.30;;
61127;SDS011;47013;42.664;23.242;2022-09-30T18:03:06;0.25;;;0.25;;
61127;SDS011;47013;42.664;23.242;2022-09-30T18:05:33;1.17;;;0.52;;
61127;SDS011;47013;42.664;23.242;2022-09-30T18:07:59;0.20;;;0.20;;
61127;SDS011;47013;42.664;23.242;2022-09-30T18:10:24;0.28;;;0.17;;
61127;SDS011;47013;42.664;23.242;2022-09-30T18:12:53;0.30;;;0.30;;
61127;SDS011;47013;42.664;23.242;2022-09-30T18:15:20;0.57;;;0.38;;
61127;SDS011;47013;42.664;23.242;2022-09-30T18:17:46;0.30;;;0.30;;
61127;SDS011;47013;42.664;23.242;2022-09-30T18:20:12;0.47;;;0.30;;
61127;SDS011;47013;42.664;23.242;2022-09-30T18:22:38;0.30;;;0.30;;
61127;SDS011;47013;42.664;23.242;2022-09-30T18:25:04;0.85;;;0.60;;
61127;SDS011;47013;42.664;23.242;2022-09-30T18:27:47;1.38;;;0.68;;
61127;SDS011;47013;42.664;23.242;2022-09-30T18:30:14;0.47;;;0.40;;
61127;SDS011;47013;42.664;23.242;2022-09-30T18:32:39;0.10;;;0.10;;
61127;SDS011;47013;42.664;23.242;2022-09-30T18:35:06;0.10;;;0.10;;
61127;SDS011;47013;42.664;23.242;2022-09-30T18:37:36;0.80;;;0.50;;
61127;SDS011;47013;42.664;23.242;2022-09-30T18:40:02;1.27;;;0.35;;
61127;SDS011;47013;42.664;23.242;2022-09-30T18:42:28;0.65;;;0.20;;
61127;SDS011;47013;42.664;23.242;2022-09-30T18:44:54;0.25;;;0.25;;
61127;SDS011;47013;42.664;23.242;2022-09-30T18:47:19;0.30;;;0.20;;
61127;SDS011;47013;42.664;23.242;2022-09-30T18:49:44;0.45;;;0.30;;